Time;durP1;ratioP1;P1;durP2;ratioP2;P2;SDS_P1;SDS_P2;PMS_P1;PMS_P2;Temp;Humidity;BMP_temperature;BMP_pressure;BME280_temperature;BME280_humidity;BME280_pressure;Samples;Min_cycle;Max_cycle;Signal;HPM_P1;HPM_P2
2020/12/11 00:01:38;;;;;;;47.38;23.60;;;;;;;-2.52;90.15;95868.41;1680348;84;21187;-80
2020/12/11 00:04:06;;;;;;;43.40;22.37;;;;;;;-2.49;90.00;95873.16;1679613;85;21309;-80
2020/12/11 00:06:33;;;;;;;42.75;23.90;;;;;;;-2.54;89.84;95869.89;1660102;85;21515;-80
2020/12/11 00:09:00;;;;;;;43.35;21.57;;;;;;;-2.58;89.94;95867.95;1679521;84;21128;-80
2020/12/11 00:11:31;;;;;;;47.98;25.50;;;;;;;-2.65;89.88;95879.69;1679311;84;21655;-80
2020/12/11 00:13:59;;;;;;;47.55;25.10;;;;;;;-2.67;90.07;95880.89;1679510;85;21658;-80
2020/12/11 00:16:26;;;;;;;38.83;23.15;;;;;;;-2.65;90.17;95880.20;1679451;84;21646;-80
2020/12/11 00:18:53;;;;;;;33.92;18.15;;;;;;;-2.63;90.26;95880.77;1679775;84;21167;-80
2020/12/11 00:21:21;;;;;;;37.75;20.27;;;;;;;-2.56;91.32;95888.77;1679409;84;21194;-80
2020/12/11 00:23:48;;;;;;;30.85;17.62;;;;;;;-2.28;91.88;95878.44;1679754;85;21186;-80
2020/12/11 00:26:18;;;;;;;40.08;19.20;;;;;;;-2.05;92.27;95883.80;1679442;85;21322;-80
2020/12/11 00:28:45;;;;;;;39.70;21.05;;;;;;;-1.90;92.34;95887.32;1679589;84;21167;-80
2020/12/11 00:31:13;;;;;;;37.38;20.10;;;;;;;-1.82;92.25;95893.03;1679376;84;21306;-80
2020/12/11 00:33:40;;;;;;;37.80;20.08;;;;;;;-1.73;92.33;95895.31;1679459;85;21671;-80
2020/12/11 00:36:07;;;;;;;32.20;18.00;;;;;;;-1.67;92.22;95901.75;1679513;85;21187;-80
2020/12/11 00:38:34;;;;;;;33.20;17.82;;;;;;;-1.67;92.01;95906.95;1679486;85;21313;-80
2020/12/11 00:41:03;;;;;;;32.35;18.10;;;;;;;-1.64;92.04;95905.20;1679647;84;21184;-80
2020/12/11 00:43:30;;;;;;;32.67;19.02;;;;;;;-1.58;92.00;95908.72;1679430;85;21302;-80
2020/12/11 00:45:57;;;;;;;40.10;21.33;;;;;;;-1.56;91.89;95906.69;1679422;85;21293;-80
2020/12/11 00:48:24;;;;;;;33.30;19.12;;;;;;;-1.51;92.15;95908.15;1679543;85;21171;-80
2020/12/11 00:50:52;;;;;;;31.15;18.05;;;;;;;-1.43;92.07;95913.53;1679366;84;21164;-80
2020/12/11 00:53:19;;;;;;;25.30;13.58;;;;;;;-1.40;92.03;95908.71;1679717;84;21171;-80
2020/12/11 00:55:46;;;;;;;38.58;21.55;;;;;;;-1.36;92.35;95909.85;1679544;85;21657;-80
2020/12/11 00:58:13;;;;;;;35.83;20.30;;;;;;;-1.28;92.35;95913.42;1679432;84;21329;-80
2020/12/11 01:00:40;;;;;;;34.20;18.85;;;;;;;-1.26;92.12;95915.83;1692855;84;21158;-80
2020/12/11 01:03:07;;;;;;;24.75;14.10;;;;;;;-1.31;91.84;95911.78;1709979;84;21183;-80
2020/12/11 01:05:35;;;;;;;26.82;15.88;;;;;;;-1.36;91.58;95914.26;1710271;84;21194;-80
2020/12/11 01:08:05;;;;;;;32.67;19.67;;;;;;;-1.47;91.33;95913.19;1710131;84;21155;-80
2020/12/11 01:10:33;;;;;;;32.38;20.02;;;;;;;-1.55;91.12;95910.88;1710129;82;21193;-80
2020/12/11 01:13:01;;;;;;;42.10;21.62;;;;;;;-1.59;91.16;95911.03;1709929;84;21155;-80
2020/12/11 01:15:28;;;;;;;37.90;21.80;;;;;;;-1.63;91.03;95904.19;1710046;84;21207;-80
2020/12/11 01:17:56;;;;;;;35.48;19.95;;;;;;;-1.65;90.96;95904.12;1709997;84;21176;-80
2020/12/11 01:20:23;;;;;;;30.55;18.62;;;;;;;-1.66;90.87;95906.44;1710301;82;21167;-80
2020/12/11 01:22:50;;;;;;;34.60;18.23;;;;;;;-1.69;90.80;95905.08;1710040;84;21677;-80
2020/12/11 01:25:19;;;;;;;34.00;18.67;;;;;;;-1.68;90.77;95911.06;1710018;84;21187;-80
2020/12/11 01:27:46;;;;;;;35.25;18.42;;;;;;;-1.71;90.72;95904.98;1709974;84;21192;-80
2020/12/11 01:30:13;;;;;;;34.05;19.50;;;;;;;-1.72;90.73;95904.19;1710312;82;21188;-80
2020/12/11 01:32:40;;;;;;;28.47;16.00;;;;;;;-1.70;90.81;95894.36;1710124;84;21127;-80
2020/12/11 01:35:07;;;;;;;44.73;22.17;;;;;;;-1.66;90.97;95897.34;1710060;84;21546;-80
2020/12/11 01:37:35;;;;;;;27.67;17.12;;;;;;;-1.65;91.12;95902.32;1710009;84;21150;-80
2020/12/11 01:40:02;;;;;;;36.83;21.02;;;;;;;-1.60;91.46;95895.95;1710065;82;21210;-80
2020/12/11 01:42:28;;;;;;;38.20;19.80;;;;;;;-1.56;91.47;95893.19;1710009;84;21195;-80
2020/12/11 01:44:56;;;;;;;36.85;19.15;;;;;;;-1.52;91.59;95902.16;1709998;84;21178;-80
2020/12/11 01:47:25;;;;;;;41.35;21.42;;;;;;;-1.50;91.68;95897.53;1710012;84;21187;-80
2020/12/11 01:49:55;;;;;;;34.20;19.57;;;;;;;-1.47;91.62;95885.89;1710122;82;21132;-80
2020/12/11 01:52:23;;;;;;;25.80;13.90;;;;;;;-1.49;91.58;95884.03;1710262;84;21172;-80
2020/12/11 01:54:50;;;;;;;29.32;17.30;;;;;;;-1.49;91.54;95881.42;1709971;84;21136;-80
2020/12/11 01:57:39;;;;;;;31.33;18.55;;;;;;;-1.55;91.40;95889.61;1710001;84;21539;-80
2020/12/11 02:00:08;;;;;;;34.95;17.90;;;;;;;-1.67;91.24;95888.76;1707585;82;21216;-80
2020/12/11 02:02:41;;;;;;;34.53;18.25;;;;;;;-1.84;91.28;95894.23;1679370;85;21283;-80
2020/12/11 02:05:10;;;;;;;25.48;17.02;;;;;;;-1.99;91.25;95897.20;1679241;85;21665;-81
2020/12/11 02:07:39;;;;;;;31.80;19.23;;;;;;;-2.10;91.24;95888.85;1679573;85;21191;-80
2020/12/11 02:10:08;;;;;;;34.35;18.45;;;;;;;-2.21;91.08;95883.06;1679371;84;21136;-81
2020/12/11 02:12:36;;;;;;;27.25;16.10;;;;;;;-2.23;91.25;95879.90;1679392;85;21306;-81
2020/12/11 02:15:06;;;;;;;30.20;16.02;;;;;;;-2.20;91.44;95875.56;1679364;85;21317;-80
2020/12/11 02:17:36;;;;;;;25.17;14.43;;;;;;;-2.27;91.16;95868.34;1679389;85;21294;-81
2020/12/11 02:20:04;;;;;;;25.30;13.45;;;;;;;-2.49;91.00;95864.87;1679545;84;21318;-80
2020/12/11 02:22:31;;;;;;;26.10;15.48;;;;;;;-2.62;91.39;95864.98;1679361;85;21294;-80
2020/12/11 02:24:59;;;;;;;26.30;15.15;;;;;;;-2.60;91.79;95866.86;1679558;85;21554;-81
2020/12/11 02:27:26;;;;;;;23.77;13.90;;;;;;;-2.50;91.99;95870.28;1679401;84;21289;-80
2020/12/11 02:29:53;;;;;;;24.15;12.80;;;;;;;-2.38;92.48;95875.05;1679720;84;21160;-80
2020/12/11 02:32:21;;;;;;;24.18;12.68;;;;;;;-2.28;92.67;95873.24;1679496;85;21298;-81
2020/12/11 02:34:49;;;;;;;23.10;12.75;;;;;;;-2.19;92.84;95879.75;1679551;85;21329;-81
2020/12/11 02:37:16;;;;;;;17.15;9.90;;;;;;;-2.14;92.85;95881.18;1679600;84;21164;-81
2020/12/11 02:39:47;;;;;;;17.62;10.13;;;;;;;-2.12;93.02;95871.37;1679523;84;21298;-80
2020/12/11 02:42:14;;;;;;;16.12;9.70;;;;;;;-2.05;93.14;95866.12;1679771;84;21285;-81
2020/12/11 02:44:41;;;;;;;17.67;9.13;;;;;;;-2.10;92.67;95861.59;1679638;85;21159;-80
2020/12/11 02:47:08;;;;;;;22.70;11.50;;;;;;;-2.30;92.54;95866.18;1679600;84;21140;-80
2020/12/11 02:49:36;;;;;;;18.40;10.98;;;;;;;-2.41;92.52;95862.48;1679628;84;21512;-80
2020/12/11 02:52:03;;;;;;;18.60;9.78;;;;;;;-2.38;92.59;95857.39;1679513;85;21306;-80
2020/12/11 02:54:30;;;;;;;19.15;9.83;;;;;;;-2.36;92.53;95860.06;1679472;85;21318;-81
2020/12/11 02:56:57;;;;;;;16.77;8.80;;;;;;;-2.33;92.52;95859.62;1679581;84;21171;-81
2020/12/11 02:59:24;;;;;;;19.98;9.80;;;;;;;-2.30;92.47;95850.61;1687127;84;21290;-80
2020/12/11 03:01:51;;;;;;;22.58;12.68;;;;;;;-2.26;92.71;95851.25;1729370;82;21140;-80
2020/12/11 03:04:19;;;;;;;25.45;12.23;;;;;;;-2.19;92.73;95850.69;1739518;82;21159;-80
2020/12/11 03:06:46;;;;;;;16.73;9.70;;;;;;;-2.21;92.57;95845.42;1739483;82;21520;-81
2020/12/11 03:09:13;;;;;;;14.58;9.05;;;;;;;-2.22;92.64;95847.73;1739473;82;21144;-80
2020/12/11 03:11:40;;;;;;;15.23;7.03;;;;;;;-2.24;92.65;95853.66;1735693;82;21135;-80
2020/12/11 03:14:07;;;;;;;18.02;9.73;;;;;;;-2.27;92.41;95848.87;1710154;84;21172;-81
2020/12/11 03:16:34;;;;;;;20.95;10.20;;;;;;;-2.32;92.34;95856.52;1710226;84;21155;-80
2020/12/11 03:19:01;;;;;;;27.52;13.45;;;;;;;-2.35;92.31;95855.66;1710078;84;21154;-81
2020/12/11 03:21:28;;;;;;;25.23;14.03;;;;;;;-2.31;92.45;95856.80;1710226;82;21191;-81
2020/12/11 03:23:55;;;;;;;22.30;12.95;;;;;;;-2.27;92.63;95858.75;1710098;84;21159;-81
2020/12/11 03:26:22;;;;;;;20.15;12.25;;;;;;;-2.10;93.06;95851.20;1710406;84;21163;-81
2020/12/11 03:28:51;;;;;;;19.55;11.40;;;;;;;-1.94;93.20;95862.80;1710154;84;21170;-81
2020/12/11 03:31:20;;;;;;;18.73;11.15;;;;;;;-1.88;93.27;95854.13;1710081;82;21147;-81
2020/12/11 03:33:47;;;;;;;14.85;8.85;;;;;;;-1.78;93.45;95860.91;1710190;84;21155;-81
2020/12/11 03:36:20;;;;;;;14.63;8.55;;;;;;;-1.53;93.99;95862.09;1710090;84;21155;-81
2020/12/11 03:38:49;;;;;;;12.93;6.78;;;;;;;-1.31;94.26;95852.77;1710176;84;21139;-81
2020/12/11 03:41:19;;;;;;;15.00;9.33;;;;;;;-1.25;94.07;95856.31;1710244;82;21169;-81
2020/12/11 03:43:46;;;;;;;17.48;10.48;;;;;;;-1.16;93.83;95867.96;1709810;84;21129;-80
2020/12/11 03:46:21;;;;;;;20.80;12.13;;;;;;;-1.31;93.36;95861.87;1710200;84;21129;-80
2020/12/11 03:48:50;;;;;;;19.02;9.65;;;;;;;-1.47;93.23;95862.50;1710077;84;21165;-80
2020/12/11 03:51:22;;;;;;;21.90;11.33;;;;;;;-1.53;93.25;95864.70;1710046;84;21190;-80
2020/12/11 03:53:50;;;;;;;19.35;10.70;;;;;;;-1.60;92.97;95856.97;1710130;84;21540;-80
2020/12/11 03:56:19;;;;;;;16.27;9.13;;;;;;;-1.80;92.80;95848.14;1710111;84;21477;-81
2020/12/11 03:58:47;;;;;;;19.95;9.93;;;;;;;-1.93;92.96;95844.40;1710155;84;21493;-80
2020/12/11 04:01:15;;;;;;;15.78;8.83;;;;;;;-2.03;93.05;95851.91;1710045;84;21215;-81
2020/12/11 04:03:43;;;;;;;14.90;9.35;;;;;;;-2.08;93.18;95863.45;1710146;84;21176;-80
2020/12/11 04:06:14;;;;;;;12.73;7.67;;;;;;;-2.07;93.34;95862.45;1710083;84;21156;-80
2020/12/11 04:08:42;;;;;;;20.88;10.93;;;;;;;-2.17;93.21;95857.75;1710254;84;21117;-80
2020/12/11 04:11:13;;;;;;;17.82;10.43;;;;;;;-2.25;93.16;95861.13;1710022;84;21173;-80
2020/12/11 04:13:41;;;;;;;;;;;;;;;-2.30;93.08;95857.89;1712100;84;21177;-81
2020/12/11 04:16:10;;;;;;;19.12;10.80;;;;;;;-2.30;93.12;95853.99;1710092;84;20333;-81
2020/12/11 04:18:38;;;;;;;21.70;11.90;;;;;;;-2.26;93.17;95853.84;1710269;84;21518;-81
2020/12/11 04:21:05;;;;;;;21.95;12.35;;;;;;;-2.24;93.13;95858.84;1710289;82;21175;-81
2020/12/11 04:23:32;;;;;;;24.25;13.50;;;;;;;-2.22;93.12;95859.42;1710130;84;21131;-81
2020/12/11 04:25:59;;;;;;;19.55;9.70;;;;;;;-2.23;93.03;95863.02;1710080;84;21178;-81
2020/12/11 04:28:26;;;;;;;21.15;12.73;;;;;;;-2.24;93.11;95867.42;1710208;84;21150;-80
2020/12/11 04:30:53;;;;;;;27.05;16.70;;;;;;;-2.24;93.05;95873.12;1710250;82;21140;-81
2020/12/11 04:33:21;;;;;;;24.02;12.98;;;;;;;-2.28;92.97;95865.45;1710079;84;21147;-81
2020/12/11 04:35:48;;;;;;;31.80;18.30;;;;;;;-2.33;92.96;95866.11;1710106;84;21186;-80
2020/12/11 04:38:16;;;;;;;31.10;18.02;;;;;;;-2.38;92.78;95866.48;1710164;84;21146;-80
2020/12/11 04:40:44;;;;;;;24.67;15.63;;;;;;;-2.44;92.61;95870.20;1710065;82;21166;-81
2020/12/11 04:43:13;;;;;;;27.60;15.85;;;;;;;-2.47;92.54;95869.34;1710114;84;21158;-81
2020/12/11 04:45:42;;;;;;;25.37;13.90;;;;;;;-2.46;92.46;95861.05;1709991;84;21670;-81
2020/12/11 04:48:11;;;;;;;25.80;14.43;;;;;;;-2.47;92.40;95861.55;1710052;84;21179;-80
2020/12/11 04:50:38;;;;;;;22.20;13.73;;;;;;;-2.49;92.29;95862.28;1710441;82;21508;-81
2020/12/11 04:53:05;;;;;;;19.98;11.90;;;;;;;-2.55;92.29;95858.43;1710000;84;21515;-80
2020/12/11 04:55:35;;;;;;;22.62;13.58;;;;;;;-2.53;92.37;95859.83;1709984;84;21176;-80
2020/12/11 04:58:05;;;;;;;17.03;10.10;;;;;;;-2.48;92.37;95858.67;1710445;84;21154;-81
2020/12/11 05:00:32;;;;;;;22.90;13.15;;;;;;;-2.46;92.37;95863.64;1710320;82;21847;-80
2020/12/11 05:03:01;;;;;;;16.25;9.95;;;;;;;-2.45;92.30;95863.93;1709977;84;21178;-81
2020/12/11 05:05:29;;;;;;;15.80;9.28;;;;;;;-2.38;92.49;95862.58;1685761;84;21174;-80
2020/12/11 05:07:56;;;;;;;15.30;8.23;;;;;;;-2.27;92.66;95856.66;1710066;84;21266;-80
2020/12/11 05:10:24;;;;;;;13.48;8.28;;;;;;;-2.24;92.54;95866.62;1710008;82;21314;-80
2020/12/11 05:12:51;;;;;;;13.83;7.35;;;;;;;-2.29;92.40;95868.55;1710132;84;21163;-80
2020/12/11 05:15:21;;;;;;;13.40;8.13;;;;;;;-2.27;92.62;95870.43;1710006;84;21606;-80
2020/12/11 05:17:48;;;;;;;13.93;8.13;;;;;;;-2.27;92.45;95869.13;1710253;84;21154;-81
2020/12/11 05:20:15;;;;;;;13.05;8.20;;;;;;;-2.31;92.61;95862.00;1709988;82;21159;-80
2020/12/11 05:22:42;;;;;;;14.20;8.60;;;;;;;-2.31;92.61;95860.20;1710068;84;21155;-80
2020/12/11 05:25:13;;;;;;;12.30;7.78;;;;;;;-2.29;92.74;95859.97;1710013;84;21499;-80
2020/12/11 05:27:44;;;;;;;14.78;7.50;;;;;;;-2.23;92.91;95865.62;1710145;84;21654;-80
2020/12/11 05:30:17;;;;;;;13.93;8.28;;;;;;;-2.25;92.99;95860.65;1710136;82;21219;-80
2020/12/11 05:32:48;;;;;;;13.93;7.67;;;;;;;-2.22;93.12;95849.83;1710030;84;21147;-80
2020/12/11 05:35:21;;;;;;;18.75;11.78;;;;;;;-2.20;93.19;95854.80;1709866;84;21159;-80
2020/12/11 05:37:54;;;;;;;16.82;10.55;;;;;;;-2.22;93.04;95866.70;1710071;84;21183;-80
2020/12/11 05:40:30;;;;;;;15.32;9.25;;;;;;;-2.25;92.99;95868.91;1709982;82;21174;-80
2020/12/11 05:43:21;;;;;;;18.25;10.40;;;;;;;-2.27;92.93;95868.34;1710095;84;21112;-80
2020/12/11 05:45:53;;;;;;;20.90;12.40;;;;;;;-2.32;92.95;95867.70;1710040;84;21132;-80
2020/12/11 05:48:23;;;;;;;16.75;11.35;;;;;;;-2.30;93.04;95868.27;1710022;84;21143;-80
2020/12/11 05:50:50;;;;;;;18.80;10.15;;;;;;;-2.25;92.96;95870.20;1710221;82;21147;-79
2020/12/11 05:53:17;;;;;;;19.02;9.60;;;;;;;-2.23;92.94;95872.91;1710087;84;21129;-80
2020/12/11 05:55:48;;;;;;;18.80;9.98;;;;;;;-2.21;92.88;95875.28;1710084;84;21135;-79
2020/12/11 05:58:17;;;;;;;19.02;10.10;;;;;;;-2.20;92.85;95875.56;1710042;84;21507;-80
2020/12/11 06:00:46;;;;;;;19.30;9.68;;;;;;;-2.17;92.83;95869.43;1709911;82;21285;-79
2020/12/11 06:03:14;;;;;;;16.40;8.83;;;;;;;-2.15;92.78;95873.11;1683182;84;21334;-79
2020/12/11 06:05:41;;;;;;;16.30;9.25;;;;;;;-2.15;92.66;95875.70;1679379;85;21319;-79
2020/12/11 06:08:11;;;;;;;9.93;5.95;;;;;;;-2.14;92.53;95874.69;1679499;85;21350;-79
2020/12/11 06:10:41;;;;;;;10.13;5.80;;;;;;;-2.15;92.41;95875.70;1679515;84;21176;-80
2020/12/11 06:13:09;;;;;;;10.43;5.92;;;;;;;-2.15;92.33;95873.90;1679356;85;21650;-79
2020/12/11 06:15:45;;;;;;;13.13;6.47;;;;;;;-2.13;92.33;95874.98;1679311;85;21306;-79
2020/12/11 06:18:25;;;;;;;9.50;5.70;;;;;;;-2.09;92.36;95880.05;1679148;85;21159;-80
2020/12/11 06:20:56;;;;;;;;;;;;;;;-2.10;92.19;95891.45;1681878;84;21162;-80
2020/12/11 06:23:29;;;;;;;12.53;6.95;;;;;;;-2.13;92.12;95891.86;1679561;85;20119;-80
2020/12/11 06:26:01;;;;;;;12.25;6.55;;;;;;;-2.13;92.12;95895.24;1679387;85;21278;-80
2020/12/11 06:28:40;;;;;;;19.15;11.80;;;;;;;-2.16;92.14;95890.48;1679625;84;21484;-80
2020/12/11 06:31:22;;;;;;;27.62;13.28;;;;;;;-2.19;92.24;95892.73;1679480;84;21339;-80
2020/12/11 06:33:57;;;;;;;24.37;12.68;;;;;;;-2.16;92.43;95896.19;1679475;85;21282;-81
2020/12/11 06:36:24;;;;;;;27.05;13.75;;;;;;;-2.12;92.49;95898.63;1679386;85;21286;-81
2020/12/11 06:38:58;;;;;;;35.73;21.57;;;;;;;-2.04;92.59;95903.55;1659995;85;21139;-81
2020/12/11 06:41:37;;;;;;;30.40;17.45;;;;;;;-2.01;92.76;95905.72;1679282;84;21201;-81
2020/12/11 06:44:18;;;;;;;29.63;18.75;;;;;;;-1.96;92.84;95907.17;1679456;85;21282;-81
2020/12/11 06:47:08;;;;;;;29.30;16.17;;;;;;;-1.90;92.96;95908.89;1679458;85;21156;-81
2020/12/11 06:49:40;;;;;;;24.43;13.48;;;;;;;-1.83;93.11;95904.44;1678848;84;21168;-80
2020/12/11 06:52:12;;;;;;;28.70;14.10;;;;;;;-1.68;93.37;95907.95;1676437;85;21172;-81
2020/12/11 06:54:45;;;;;;;24.98;12.37;;;;;;;-1.62;93.23;95910.18;1679737;85;21188;-80
2020/12/11 06:57:18;;;;;;;21.87;11.93;;;;;;;-1.51;93.56;95909.45;1679411;84;21298;-81
2020/12/11 06:59:45;;;;;;;27.75;16.48;;;;;;;-1.40;93.54;95906.11;1673098;84;21654;-81
2020/12/11 07:02:15;;;;;;;31.27;16.17;;;;;;;-1.32;93.54;95901.89;1689588;84;21207;-81
2020/12/11 07:04:48;;;;;;;;;;;;;;;-1.23;93.62;95891.47;1712522;84;21138;-81
2020/12/11 07:07:18;;;;;;;27.27;13.48;;;;;;;-1.09;93.73;95884.28;1709978;84;20125;-81
2020/12/11 07:09:49;;;;;;;23.67;14.03;;;;;;;-0.95;93.63;95884.37;1710240;82;21535;-81
2020/12/11 07:12:17;;;;;;;21.75;12.63;;;;;;;-0.87;93.46;95884.53;1709817;84;21116;-81
2020/12/11 07:14:45;;;;;;;20.15;12.82;;;;;;;-0.87;93.16;95884.53;1709905;84;21154;-81
2020/12/11 07:17:28;;;;;;;22.77;13.35;;;;;;;-0.85;93.07;95882.50;1710161;84;21131;-81
2020/12/11 07:19:58;;;;;;;24.02;13.38;;;;;;;-0.82;92.86;95878.17;1708299;82;21519;-81
2020/12/11 07:22:25;;;;;;;27.58;14.75;;;;;;;-0.77;92.77;95877.48;1709970;84;21158;-81
2020/12/11 07:24:52;;;;;;;23.00;13.98;;;;;;;-0.73;92.69;95876.80;1710074;84;21127;-81
2020/12/11 07:27:20;;;;;;;26.68;13.45;;;;;;;-0.76;92.39;95870.75;1710016;84;21182;-81
2020/12/11 07:29:52;;;;;;;16.70;10.82;;;;;;;-0.82;92.33;95876.08;1710078;82;21519;-81
2020/12/11 07:32:22;;;;;;;16.80;10.85;;;;;;;-0.83;92.36;95873.98;1710077;84;21176;-81
2020/12/11 07:34:52;;;;;;;18.42;10.98;;;;;;;-0.89;92.29;95869.66;1710302;84;21179;-81
2020/12/11 07:37:20;;;;;;;22.07;12.88;;;;;;;-0.85;92.26;95866.89;1710181;84;21562;-81
2020/12/11 07:39:48;;;;;;;19.60;12.68;;;;;;;-0.82;92.25;95865.16;1710119;82;21155;-81
2020/12/11 07:42:24;;;;;;;22.05;14.63;;;;;;;-0.71;92.28;95870.08;1709889;84;21159;-81
2020/12/11 07:44:51;;;;;;;27.80;15.78;;;;;;;-0.63;92.23;95863.24;1710087;84;21138;-81
2020/12/11 07:47:18;;;;;;;27.17;17.20;;;;;;;-0.55;92.23;95864.73;1710113;84;21580;-81
2020/12/11 07:49:47;;;;;;;20.40;13.15;;;;;;;-0.45;92.19;95857.13;1710128;82;21183;-81
2020/12/11 07:52:22;;;;;;;22.67;12.70;;;;;;;-0.28;92.31;95863.73;1709986;84;21167;-81
2020/12/11 07:54:46;;;;;;;27.13;15.38;;;;;;;0.28;92.17;95877.41;1709958;84;21175;-81
2020/12/11 07:57:22;;;;;;;24.10;13.83;;;;;;;0.28;92.17;95877.41;1710197;84;21163;-81
2020/12/11 08:00:03;;;;;;;24.50;14.68;;;;;;;0.36;91.87;95879.66;1710125;82;21141;-81
2020/12/11 08:02:33;;;;;;;24.00;15.30;;;;;;;0.42;91.58;95872.20;1699651;84;21361;-81
2020/12/11 08:05:03;;;;;;;23.50;14.00;;;;;;;0.45;91.25;95867.85;1679679;85;21352;-82
2020/12/11 08:07:32;;;;;;;22.58;12.55;;;;;;;0.50;90.97;95873.15;1679640;85;21504;-82
2020/12/11 08:10:16;;;;;;;24.82;15.15;;;;;;;0.47;90.69;95870.22;1679671;84;21173;-82
2020/12/11 08:12:44;;;;;;;26.10;14.35;;;;;;;0.43;90.60;95868.59;1679260;84;21286;-82
2020/12/11 08:15:16;;;;;;;23.20;14.07;;;;;;;0.37;90.52;95875.23;1679473;84;21697;-82
2020/12/11 08:17:43;;;;;;;22.82;13.30;;;;;;;0.38;90.63;95867.69;1668535;85;21559;-82
2020/12/11 08:20:10;;;;;;;22.77;13.90;;;;;;;0.47;90.62;95867.10;1679500;84;21160;-82
2020/12/11 08:22:40;;;;;;;24.15;14.40;;;;;;;0.49;90.52;95865.05;1679344;84;21152;-82
2020/12/11 08:25:26;;;;;;;20.25;12.80;;;;;;;0.68;90.55;95870.07;1679813;84;21140;-82
2020/12/11 08:27:53;;;;;;;24.40;13.68;;;;;;;0.92;90.64;95873.37;1679334;85;21152;-82
2020/12/11 08:30:23;;;;;;;26.02;16.27;;;;;;;1.19;90.69;95867.31;1679630;84;21167;-82
2020/12/11 08:32:51;;;;;;;26.15;16.20;;;;;;;1.44;90.51;95868.22;1679444;85;21160;-82
2020/12/11 08:35:24;;;;;;;23.75;15.05;;;;;;;1.74;90.78;95864.47;1679802;85;21513;-81
2020/12/11 08:37:55;;;;;;;25.08;14.65;;;;;;;2.07;90.84;95866.20;1679397;84;21290;-82
2020/12/11 08:40:26;;;;;;;28.00;15.63;;;;;;;2.21;90.31;95863.50;1679060;84;21369;-82
2020/12/11 08:43:14;;;;;;;;;;;;;;;2.32;90.07;95869.13;1681882;85;21289;-82
2020/12/11 08:45:41;;;;;;;26.77;15.35;;;;;;;2.44;89.70;95870.32;1679540;84;20119;-82
2020/12/11 08:50:57;;;;;;;30.00;17.02;;;;;;;2.32;88.56;95877.50;1679470;84;21298;-82
2020/12/11 08:53:25;;;;;;;27.13;15.80;;;;;;;2.26;88.23;95877.97;1679440;85;21347;-82
2020/12/11 08:55:51;;;;;;;26.55;16.75;;;;;;;2.26;88.07;95872.73;1679414;85;21295;-82
2020/12/11 08:58:18;;;;;;;26.68;15.25;;;;;;;2.37;88.37;95872.31;1679429;85;21686;-82
2020/12/11 09:00:45;;;;;;;23.98;15.43;;;;;;;2.52;88.57;95879.55;1679388;84;21221;-82
2020/12/11 09:03:13;;;;;;;27.58;15.25;;;;;;;2.66;88.56;95880.75;1679360;84;21192;-82
2020/12/11 09:05:40;;;;;;;27.13;15.90;;;;;;;2.73;88.02;95877.43;1679467;85;21678;-82
2020/12/11 09:08:07;;;;;;;25.37;16.25;;;;;;;2.66;87.64;95882.05;1659897;85;21523;-82
2020/12/11 09:10:36;;;;;;;26.48;16.17;;;;;;;2.63;87.28;95878.11;1679429;84;21703;-82
2020/12/11 09:13:04;;;;;;;28.52;16.97;;;;;;;2.71;87.49;95869.05;1679313;84;21189;-82
2020/12/11 09:15:31;;;;;;;27.13;16.70;;;;;;;2.71;87.16;95865.11;1679360;85;21229;-82
2020/12/11 09:17:59;;;;;;;28.47;17.85;;;;;;;2.70;86.89;95863.54;1679527;84;21321;-82
2020/12/11 09:20:26;;;;;;;25.62;17.07;;;;;;;2.71;86.97;95860.41;1679487;84;21347;-82
2020/12/11 09:22:55;;;;;;;26.42;16.10;;;;;;;2.78;87.00;95851.30;1679419;85;21665;-83
2020/12/11 09:25:24;;;;;;;24.57;15.90;;;;;;;2.98;87.30;95848.10;1679376;84;21310;-82
2020/12/11 09:27:51;;;;;;;30.80;16.35;;;;;;;3.15;87.27;95842.73;1679476;84;21297;-82
2020/12/11 09:30:26;;;;;;;29.12;18.73;;;;;;;3.27;86.88;95842.05;1679553;84;21514;-82
2020/12/11 09:33:02;;;;;;;30.43;20.05;;;;;;;3.36;86.76;95839.22;1679412;84;21290;-82
2020/12/11 09:35:28;;;;;;;25.02;17.05;;;;;;;3.30;85.45;95830.28;1679447;84;21309;-83
2020/12/11 09:37:55;;;;;;;26.37;16.07;;;;;;;3.27;85.77;95828.95;1679423;85;21184;-82
2020/12/11 09:40:33;;;;;;;26.30;17.23;;;;;;;3.32;85.93;95831.60;1679303;84;21313;-82
2020/12/11 09:43:37;;;;;;;24.63;16.60;;;;;;;3.31;85.58;95826.09;1679417;84;21278;-83
2020/12/11 09:45:53;;;;;;;25.08;16.25;;;;;;;3.33;85.45;95825.32;1679857;85;21172;-82
2020/12/11 09:48:29;;;;;;;23.22;14.95;;;;;;;3.40;85.59;95831.16;1679402;85;21170;-83
2020/12/11 09:51:02;;;;;;;26.57;16.77;;;;;;;3.36;84.95;95825.33;1679446;84;21298;-83
2020/12/11 09:56:25;;;;;;;28.67;17.15;;;;;;;3.36;84.84;95814.86;1679346;85;21372;-83
2020/12/11 09:58:57;;;;;;;22.40;14.23;;;;;;;3.29;84.48;95820.33;1678213;85;21172;-82
2020/12/11 10:01:41;;;;;;;26.87;15.50;;;;;;;3.42;84.82;95826.45;1679703;84;21152;-82
2020/12/11 10:03:59;;;;;;;25.25;15.38;;;;;;;3.49;84.80;95817.83;1679768;84;21682;-83
2020/12/11 10:06:27;;;;;;;27.62;16.45;;;;;;;3.56;84.18;95826.28;1679559;85;21159;-83
2020/12/11 10:08:55;;;;;;;28.25;16.62;;;;;;;3.63;84.31;95822.63;1679327;84;21529;-83
2020/12/11 10:11:22;;;;;;;28.70;16.37;;;;;;;3.63;83.89;95822.63;1679381;84;21707;-83
2020/12/11 10:13:52;;;;;;;26.77;17.67;;;;;;;3.62;83.70;95820.53;1651915;86;21151;-83
2020/12/11 10:16:18;;;;;;;26.60;17.27;;;;;;;3.67;83.67;95814.03;1651839;87;21147;-83
2020/12/11 10:18:46;;;;;;;27.65;17.70;;;;;;;3.70;83.70;95806.17;1651925;87;21309;-83
2020/12/11 10:21:13;;;;;;;21.65;13.13;;;;;;;3.84;83.84;95799.44;1652020;85;21286;-83
2020/12/11 10:23:41;;;;;;;28.38;16.25;;;;;;;3.94;83.75;95792.94;1651996;87;21535;-83
2020/12/11 10:26:08;;;;;;;25.17;17.10;;;;;;;3.99;83.79;95797.41;1651971;87;21286;-83
2020/12/11 10:28:35;;;;;;;27.80;17.00;;;;;;;3.97;82.96;95796.35;1652075;86;21313;-83
2020/12/11 10:31:02;;;;;;;27.13;17.82;;;;;;;3.94;82.58;95799.98;1652020;85;21686;-83
2020/12/11 10:33:30;;;;;;;26.48;16.05;;;;;;;3.92;82.78;95785.82;1651879;87;21318;-83
2020/12/11 10:35:57;;;;;;;23.50;15.90;;;;;;;4.06;83.00;95790.86;1651926;87;21543;-83
2020/12/11 10:38:26;;;;;;;28.00;15.93;;;;;;;4.16;82.78;95780.94;1651882;86;21167;-83
2020/12/11 10:40:53;;;;;;;25.08;17.37;;;;;;;4.18;82.61;95776.22;1652024;85;21626;-83
2020/12/11 10:43:20;;;;;;;28.50;17.32;;;;;;;4.25;82.62;95767.59;1674480;85;21293;-83
2020/12/11 10:45:48;;;;;;;29.77;17.73;;;;;;;4.28;82.29;95771.53;1679454;84;21520;-83
2020/12/11 10:48:15;;;;;;;28.30;18.45;;;;;;;4.32;82.17;95771.27;1679309;85;21282;-83
2020/12/11 10:50:42;;;;;;;29.67;19.30;;;;;;;4.32;82.00;95776.52;1679370;84;21672;-83
2020/12/11 10:53:09;;;;;;;27.87;18.37;;;;;;;4.36;81.96;95781.02;1679388;85;21314;-83
2020/12/11 10:55:36;;;;;;;28.70;17.90;;;;;;;4.37;81.74;95783.11;1679561;85;21171;-83
2020/12/11 10:58:03;;;;;;;28.65;19.32;;;;;;;4.27;80.81;95780.45;1679589;85;21181;-83
2020/12/11 11:00:31;;;;;;;28.15;18.80;;;;;;;4.15;80.69;95778.05;1679483;84;21289;-83
2020/12/11 11:02:58;;;;;;;33.13;19.90;;;;;;;4.01;80.41;95776.95;1684487;84;21566;-83
2020/12/11 11:05:25;;;;;;;32.25;18.85;;;;;;;4.01;80.95;95775.64;1710045;84;21119;-83
2020/12/11 11:07:52;;;;;;;29.90;18.57;;;;;;;4.20;81.75;95768.09;1710018;84;21154;-83
2020/12/11 11:10:28;;;;;;;30.62;18.90;;;;;;;4.36;81.72;95769.70;1710024;82;21183;-84
2020/12/11 11:12:56;;;;;;;48.78;31.70;;;;;;;4.51;81.85;95763.20;1708896;84;21189;-83
2020/12/11 11:15:44;;;;;;;51.83;32.20;;;;;;;4.56;81.06;95760.57;1709437;84;21218;-84
2020/12/11 11:29:44;;;;;;;43.98;30.48;;;;;;;4.11;80.18;95742.38;1735364;81;21161;-84
2020/12/11 11:32:12;;;;;;;54.08;33.83;;;;;;;4.03;80.13;95742.86;1737782;82;21447;-84
2020/12/11 11:34:39;;;;;;;48.20;32.17;;;;;;;3.98;80.19;95744.17;1737602;83;21194;-83
2020/12/11 11:37:06;;;;;;;54.03;36.28;;;;;;;3.89;80.07;95743.08;1680361;85;21136;-84
2020/12/11 11:39:34;;;;;;;49.65;33.23;;;;;;;3.81;80.13;95740.44;1680117;84;21179;-83
2020/12/11 11:42:01;;;;;;;50.35;32.53;;;;;;;3.75;80.00;95745.91;1680097;85;21167;-84
2020/12/11 11:47:13;;;;;;;48.85;32.53;;;;;;;3.70;80.69;95738.03;1680361;85;21202;-83
2020/12/11 11:49:54;;;;;;;47.70;33.75;;;;;;;3.94;81.35;95726.56;1680090;84;21128;-84
2020/12/11 11:52:23;;;;;;;50.83;35.17;;;;;;;4.12;81.35;95719.55;1680325;85;21177;-84